Bookmark and Share
Track history (hours):
 

Silver Shadow

Operator: V Ships Leisure SAM

Last reported at 2014-Apr-24 17:24 UTC. Time now 2014-Apr-24 20:10 UTC.
Position N 31°15' E 121°58'.

Length 186 m; draft 6.1 m.

Type: Passenger vessel. MMSI: 308628000.

NotesDate/timePositionNaut miles runAvg speedWind from/ knotsBaromVisibWave heightAir tempDewpointWater temp
2014-Apr-24 17:24N 31°15' E 121°58'1314.8
2014-Apr-24 16:33N 31°19' E 121°44'1211.8
2014-Apr-24 15:33N 31°24' E 121°31'5 5.4
2014-Apr-24 14:33N 31°19' E 121°33'5 4.8
2014-Apr-24 13:30N 31°15' E 121°30'0 0.0
2014-Apr-24 12:24N 31°15' E 121°30'0 0.0
2014-Apr-24 11:18N 31°15' E 121°30'0 0.0
2014-Apr-24 10:24N 31°15' E 121°30'0 0.0
2014-Apr-24 09:30N 31°15' E 121°30'0 0.0
2014-Apr-24 08:30N 31°15' E 121°30'0 0.0
2014-Apr-24 07:24N 31°15' E 121°30'0 0.0
2014-Apr-24 06:30N 31°15' E 121°30'0 0.0
2014-Apr-24 05:30N 31°15' E 121°30'0 0.0
2014-Apr-24 04:24N 31°15' E 121°30'0 0.0
2014-Apr-24 03:06N 31°15' E 121°30'0 0.0
2014-Apr-24 02:30N 31°15' E 121°30'0 0.0
2014-Apr-24 01:12N 31°15' E 121°30'0 0.0
2014-Apr-24 00:18N 31°15' E 121°30'0 0.0
2014-Apr-23 22:30N 31°15' E 121°30'0 0.0
2014-Apr-23 21:30N 31°15' E 121°30'0 0.0
2014-Apr-23 20:30N 31°15' E 121°30'0 0.0
2014-Apr-23 19:24N 31°15' E 121°30'0 0.0
2014-Apr-23 18:30N 31°15' E 121°30'0 0.0
2014-Apr-23 17:12N 31°15' E 121°30'0 0.0
2014-Apr-23 16:30N 31°15' E 121°30'0 0.0
2014-Apr-23 15:18N 31°15' E 121°30'0 0.0
2014-Apr-23 14:24N 31°15' E 121°30'0 0.0
2014-Apr-23 13:24N 31°15' E 121°30'0 0.0
2014-Apr-23 12:30N 31°15' E 121°30'0 0.0
2014-Apr-23 11:30N 31°15' E 121°30'0 0.0
2014-Apr-23 09:18N 31°15' E 121°30'0 0.0
2014-Apr-23 07:30N 31°15' E 121°30'0 0.0
2014-Apr-23 06:24N 31°15' E 121°30'0 0.0
2014-Apr-23 05:30N 31°15' E 121°30'0 0.0
2014-Apr-23 04:30N 31°15' E 121°30'0 0.0
2014-Apr-23 00:31N 31°15' E 121°30'5 4.6
2014-Apr-22 23:33N 31°18' E 121°34'6 6.3
2014-Apr-22 22:33N 31°24' E 121°31'6 6.1
2014-Apr-22 21:33N 31°22' E 121°38'9 9.5
2014-Apr-22 20:33N 31°18' E 121°48'1411.1
2014-Apr-22 19:20N 31°14' E 122°03'2712.0
2014-Apr-22 17:08N 31°07' E 122°33'5511.8
2014-Apr-22 12:27N 30°23' E 123°12'2812.6
2014-Apr-22 10:13N 29°56' E 123°04'40514.5
2014-Apr-21 06:22N 24°19' E 118°52'3015.0
2014-Apr-21 04:23N 24°01' E 118°26'9314.8
2014-Apr-20 22:06N 23°04' E 117°05'914.5
2014-Apr-20 21:29N 22°60' E 116°57'1414.5
2014-Apr-20 20:33N 22°52' E 116°44'14514.4
2014-Apr-20 10:29N 22°18' E 114°12'2 2.0
2014-Apr-20 09:33N 22°18' E 114°10'0 0.0
2014-Apr-20 08:33N 22°18' E 114°10'0 0.0
2014-Apr-20 07:27N 22°18' E 114°10'0 0.0
2014-Apr-20 06:33N 22°18' E 114°10'0 0.0
2014-Apr-20 05:33N 22°18' E 114°10'0 0.0
2014-Apr-20 04:33N 22°18' E 114°10'0 0.0
2014-Apr-20 03:33N 22°18' E 114°10'0 0.0
2014-Apr-20 02:33N 22°18' E 114°10'0 0.0
2014-Apr-20 01:33N 22°18' E 114°10'0 0.0
2014-Apr-20 00:33N 22°18' E 114°10'0 0.0
2014-Apr-19 23:33N 22°18' E 114°10'0 0.0
2014-Apr-19 22:33N 22°18' E 114°10'0 0.0
2014-Apr-19 21:33N 22°18' E 114°10'0 0.0
2014-Apr-19 20:32N 22°18' E 114°10'0 0.0
2014-Apr-19 19:32N 22°18' E 114°10'0 0.0
2014-Apr-19 18:32N 22°18' E 114°10'0 0.0
2014-Apr-19 17:32N 22°18' E 114°10'0 0.0
2014-Apr-19 16:32N 22°18' E 114°10'0 0.0
2014-Apr-19 15:32N 22°18' E 114°10'0 0.0
2014-Apr-19 14:32N 22°18' E 114°10'0 0.0
2014-Apr-19 13:32N 22°18' E 114°10'0 0.0
2014-Apr-19 12:20N 22°18' E 114°10'0 0.0
2014-Apr-19 11:32N 22°18' E 114°10'0 0.0
2014-Apr-19 10:20N 22°18' E 114°10'0 0.0
2014-Apr-19 09:32N 22°18' E 114°10'0 0.0
2014-Apr-19 08:32N 22°18' E 114°10'0 0.0
2014-Apr-19 07:32N 22°18' E 114°10'0 0.0
2014-Apr-19 06:32N 22°18' E 114°10'0 0.0
2014-Apr-19 05:32N 22°18' E 114°10'0 0.0
2014-Apr-19 04:32N 22°18' E 114°10'0 0.0
2014-Apr-19 03:26N 22°18' E 114°10'0 0.0
2014-Apr-19 02:32N 22°18' E 114°10'0 0.0
2014-Apr-19 01:32N 22°18' E 114°10'0 0.0
2014-Apr-19 00:26N 22°18' E 114°10'0 0.3
2014-Apr-18 23:28N 22°17' E 114°10'47313.4
2014-Apr-17 12:06N 16°38' E 108°20'1014.4
2014-Apr-17 11:24N 16°32' E 108°12'1214.4
2014-Apr-17 10:33N 16°24' E 108°02'4 0.4
2014-Apr-16 23:33N 16°23' E 108°06'1615.9
2014-Apr-16 22:32N 16°13' E 108°20'  

Dump ship's entire track history

sailing weather and tide predictions

Silver Shadow — C6FN6 — position and weather